Main page
METAR-TAF:

METAR-TAF

Airports :

Kuopio Airport

Kuopio, Finland

latitude: 63-01N, longitude: 027-48E, elevation: 98 m

Current weather observation

The report was made 18 minutes ago, at 17:20 UTC
Wind 1 kt from variable directions
Temperature -8°C
Humidity 73%
Pressure 1002 hPa
Visibility 10 km or more
no clouds below 1500 m and no cumulonimbus

METAR: EFKU 271720Z AUTO VRB01KT CAVOK M08/M12 Q1002

Time: 19:38 (17:38 UTC)

Forecast

The report was made 3 hours and 14 minutes ago, at 14:24 UTC
Forecast valid from 27 at 15 UTC to 28 at 15 UTC
Wind 2 kt from variable directions
Visibility 10 km or more
no clouds below 1500 m and no cumulonimbus

TAF: EFKU 271424Z 2715/2815 VRB02KT CAVOK

Weather observations and forecasts of more than 4000 airports (METAR and TAF reports).

The available stations are represented by yellow and red dots on the map.

Hover mouse over dot to see the name of the station.

Then click to see weather observations and forecasts.

To change the map : click on the green buttons with a black cross to zoom in, on the green button with a dash to zoom out, or on the green arrows for adjacent maps.


METAR-TAF: